Duck Hill, Mississippi
Current Conditions -  °F | °C
As of 6:15 PM on Sunday 23 Nov 2014 (Local Time) from KGNF Reporting Station
Clear Clear  
Wind Chill: 61°   Ceiling: Unl
Heat Index: 61°   Visibility: 10mi
Dew Point: 57°   Wind: 5mph
Humidity: 88%   Direction: 200°SSW
Pressure: 29.5"   Gusts: NA
Location:  33.63°N, 89.71°W
Report Text: KGNF 240015Z AUTO 20004KT 10SM CLR 16/14 A2950 RMK AO2
Loading
Personal Weather Stations






























Interactive Weather Map New forecast layout! Learn more

10-Day Weather Forecast

Advertisements
Track Severe Weather on mobile